createdAt,value
2023-05-13T00:00:28.517Z,99166.91
2023-05-13T00:02:55.123Z,99168.66
2023-05-13T00:05:21.774Z,99158.03
2023-05-13T00:07:48.355Z,99158.97
2023-05-13T00:10:16.461Z,99158.97
2023-05-13T00:12:46.576Z,99162.50
2023-05-13T00:15:13.481Z,99153.66
2023-05-13T00:17:43.305Z,99155.41
2023-05-13T00:20:13.347Z,99165.19
2023-05-13T00:22:42.702Z,99168.75
2023-05-13T00:25:09.488Z,99163.44
2023-05-13T00:27:35.980Z,99166.09
2023-05-13T00:30:02.696Z,99164.25
2023-05-13T00:32:29.268Z,99166.06
2023-05-13T00:34:55.852Z,99171.38
2023-05-13T00:37:22.352Z,99172.31
2023-05-13T00:39:48.852Z,99168.81
2023-05-13T00:42:19.668Z,99175.06
2023-05-13T00:44:46.553Z,99173.31
2023-05-13T00:47:13.197Z,99179.50
2023-05-13T00:49:39.821Z,99178.56
2023-05-13T00:52:06.533Z,99170.63
2023-05-13T00:54:35.145Z,99174.13
2023-05-13T00:57:04.788Z,99177.69
2023-05-13T00:59:34.497Z,99174.13
2023-05-13T01:02:26.123Z,99177.69
2023-05-13T01:05:09.706Z,99176.78
2023-05-13T01:08:02.874Z,99179.47
2023-05-13T01:10:51.275Z,99177.81
2023-05-13T01:13:24.877Z,99171.63
2023-05-13T01:16:12.954Z,99175.13
2023-05-13T01:18:52.708Z,99176.03
2023-05-13T01:21:26.595Z,99178.66
2023-05-13T01:23:53.173Z,99179.63
2023-05-13T01:26:20.924Z,99187.59
2023-05-13T01:28:50.076Z,99181.41
2023-05-13T01:31:21.010Z,99182.28
2023-05-13T01:33:48.740Z,99183.13
2023-05-13T01:36:15.669Z,99185.75
2023-05-13T01:38:43.638Z,99193.72
2023-05-13T01:41:10.089Z,99188.44
2023-05-13T01:43:36.593Z,99184.88
2023-05-13T01:46:03.276Z,99187.56
2023-05-13T01:48:29.829Z,99185.78
2023-05-13T01:50:56.404Z,99185.81
2023-05-13T01:53:22.847Z,99189.38
2023-05-13T01:55:49.330Z,99185.84
2023-05-13T01:58:15.792Z,99184.06
2023-05-13T02:00:42.397Z,99186.72
2023-05-13T02:03:09.055Z,99187.59
2023-05-13T02:05:35.745Z,99179.63
2023-05-13T02:08:02.401Z,99182.31
2023-05-13T02:10:28.879Z,99187.63
2023-05-13T02:12:55.313Z,99183.19
2023-05-13T02:15:21.788Z,99178.78
2023-05-13T02:17:48.299Z,99187.63
2023-05-13T02:20:15.278Z,99189.38
2023-05-13T02:22:41.866Z,99185.88
2023-05-13T02:25:08.880Z,99183.22
2023-05-13T02:27:35.356Z,99186.75
2023-05-13T02:30:02.018Z,99185.03
2023-05-13T02:32:28.614Z,99185.00
2023-05-13T02:34:55.130Z,99189.44
2023-05-13T02:37:21.562Z,99192.97
2023-05-13T02:39:48.118Z,99191.19
2023-05-13T02:42:14.615Z,99185.91
2023-05-13T02:44:41.410Z,99189.41
2023-05-13T02:47:10.957Z,99184.13
2023-05-13T02:49:37.421Z,99184.13
2023-05-13T02:52:04.086Z,99183.25
2023-05-13T02:54:30.535Z,99181.50
2023-05-13T02:56:57.023Z,99181.50
2023-05-13T02:59:23.516Z,99178.84
2023-05-13T03:01:50.224Z,99183.28
2023-05-13T03:04:16.779Z,99181.50
2023-05-13T03:06:43.280Z,99178.84
2023-05-13T03:09:09.720Z,99179.72
2023-05-13T03:11:36.212Z,99172.66
2023-05-13T03:14:02.679Z,99182.38
2023-05-13T03:16:29.211Z,99190.28
2023-05-13T03:18:55.754Z,99183.22
2023-05-13T03:21:22.410Z,99193.81
2023-05-13T03:23:49.041Z,99184.13
2023-05-13T03:26:16.508Z,99186.78
2023-05-13T03:28:42.981Z,99192.09
2023-05-13T03:31:09.654Z,99191.22
2023-05-13T03:33:36.147Z,99188.53
2023-05-13T03:36:02.702Z,99191.22
2023-05-13T03:38:29.170Z,99188.56
2023-05-13T03:40:55.672Z,99198.28
2023-05-13T03:43:22.239Z,99208.00
2023-05-13T03:45:50.516Z,99206.22
2023-05-13T03:48:17.670Z,99203.56
2023-05-13T03:50:44.296Z,99207.09
2023-05-13T03:53:11.462Z,99208.84
2023-05-13T03:55:38.034Z,99208.84
2023-05-13T03:58:22.917Z,99212.41
2023-05-13T04:00:49.591Z,99209.75
2023-05-13T04:03:17.195Z,99209.75
2023-05-13T04:05:47.881Z,99214.16
2023-05-13T04:08:14.777Z,99215.94
2023-05-13T04:10:41.285Z,99213.25
2023-05-13T04:13:08.992Z,99215.03
2023-05-13T04:15:38.171Z,99216.81
2023-05-13T04:18:04.719Z,99222.97
2023-05-13T04:20:31.163Z,99219.47
2023-05-13T04:22:57.679Z,99220.34
2023-05-13T04:25:24.255Z,99220.34
2023-05-13T04:27:50.865Z,99219.47
2023-05-13T04:30:17.416Z,99222.97
2023-05-13T04:32:44.212Z,99217.72
2023-05-13T04:35:14.281Z,99224.78
2023-05-13T04:37:40.816Z,99219.50
2023-05-13T04:40:08.363Z,99223.91
2023-05-13T04:42:35.022Z,99220.34
2023-05-13T04:45:01.574Z,99221.25
2023-05-13T04:47:28.081Z,99221.25
2023-05-13T04:49:54.628Z,99225.63
2023-05-13T04:52:21.533Z,99225.63
2023-05-13T04:54:47.972Z,99226.47
2023-05-13T04:57:14.492Z,99223.78
2023-05-13T04:59:41.064Z,99234.28
2023-05-13T05:02:07.604Z,99234.19
2023-05-13T05:04:34.125Z,99228.81
2023-05-13T05:07:00.691Z,99227.94
2023-05-13T05:09:27.184Z,99228.84
2023-05-13T05:11:53.680Z,99218.13
2023-05-13T05:14:20.651Z,99226.06
2023-05-13T05:16:47.192Z,99230.50
2023-05-13T05:19:13.783Z,99233.16
2023-05-13T05:21:40.298Z,99231.38
2023-05-13T05:24:07.045Z,99239.34
2023-05-13T05:26:33.706Z,99246.47
2023-05-13T05:29:00.192Z,99236.63
2023-05-13T05:31:27.540Z,99240.09
2023-05-13T05:33:55.131Z,99243.63
2023-05-13T05:36:21.711Z,99238.25
2023-05-13T05:38:48.197Z,99240.88
2023-05-13T05:41:14.658Z,99243.50
2023-05-13T05:43:41.220Z,99248.78
2023-05-13T05:46:07.963Z,99251.44
2023-05-13T05:48:34.867Z,99255.81
2023-05-13T05:51:01.488Z,99253.94
2023-05-13T05:53:28.153Z,99252.22
2023-05-13T05:55:54.658Z,99249.69
2023-05-13T05:58:21.208Z,99251.34
2023-05-13T06:00:47.793Z,99248.47
2023-05-13T06:03:14.542Z,99246.59
2023-05-13T06:05:41.117Z,99253.69
2023-05-13T06:08:07.588Z,99252.75
2023-05-13T06:10:34.065Z,99255.47
2023-05-13T06:13:00.726Z,99266.22
2023-05-13T06:15:27.210Z,99252.94
2023-05-13T06:17:53.776Z,99257.38
2023-05-13T06:20:20.534Z,99254.69
2023-05-13T06:22:48.077Z,99250.06
2023-05-13T06:25:14.610Z,99258.03
2023-05-13T06:27:41.135Z,99257.25
2023-05-13T06:30:08.081Z,99260.88
2023-05-13T06:32:34.634Z,99263.53
2023-05-13T06:35:01.144Z,99265.34
2023-05-13T06:37:27.677Z,99269.78
2023-05-13T06:39:54.228Z,99266.13
2023-05-13T06:42:20.719Z,99267.88
2023-05-13T06:44:47.252Z,99270.59
2023-05-13T06:47:16.091Z,99269.72
2023-05-13T06:49:42.790Z,99278.53
2023-05-13T06:52:09.944Z,99280.19
2023-05-13T06:54:36.559Z,99273.00
2023-05-13T06:57:05.636Z,99272.09
2023-05-13T06:59:32.184Z,99266.78
2023-05-13T07:01:58.727Z,99271.19
2023-05-13T07:04:25.786Z,99268.41
2023-05-13T07:06:52.296Z,99260.41
2023-05-13T07:09:18.801Z,99259.56
2023-05-13T07:11:45.225Z,99259.56
2023-05-13T07:14:11.760Z,99267.53
2023-05-13T07:16:38.294Z,99267.63
2023-05-13T07:19:05.086Z,99269.44
2023-05-13T07:21:31.760Z,99269.53
2023-05-13T07:23:58.230Z,99277.56
2023-05-13T07:26:24.717Z,99279.31
2023-05-13T07:28:51.205Z,99280.22
2023-05-13T07:31:17.784Z,99284.53
2023-05-13T07:33:44.280Z,99281.88
2023-05-13T07:36:10.786Z,99287.06
2023-05-13T07:38:37.213Z,99286.22
2023-05-13T07:41:03.751Z,99295.97
2023-05-13T07:43:30.237Z,99297.78
2023-05-13T07:45:56.704Z,99303.97
2023-05-13T07:48:25.219Z,99302.22
2023-05-13T07:50:51.779Z,99295.09
2023-05-13T07:53:19.755Z,99296.69
2023-05-13T07:55:46.586Z,99299.88
2023-05-13T07:58:13.214Z,99288.16
2023-05-13T08:00:39.802Z,99289.19
2023-05-13T08:03:06.602Z,99292.16
2023-05-13T08:05:33.145Z,99291.91
2023-05-13T08:07:59.581Z,99292.63
2023-05-13T08:10:26.075Z,99291.66
2023-05-13T08:12:57.716Z,99294.09
2023-05-13T08:15:25.410Z,99290.97
2023-05-13T08:17:54.957Z,99289.41
2023-05-13T08:20:23.077Z,99290.06
2023-05-13T08:22:52.636Z,99294.97
2023-05-13T08:25:19.514Z,99289.13
2023-05-13T08:27:46.581Z,99283.44
2023-05-13T08:30:13.755Z,99288.44
2023-05-13T08:32:40.283Z,99290.44
2023-05-13T08:35:07.102Z,99287.41
2023-05-13T08:37:33.607Z,99289.09
2023-05-13T08:40:01.612Z,99293.97
2023-05-13T08:42:32.091Z,99291.03
2023-05-13T08:45:04.817Z,99300.44
2023-05-13T08:47:48.426Z,99296.78
2023-05-13T08:50:15.085Z,99295.06
2023-05-13T08:52:43.338Z,99295.56
2023-05-13T08:55:10.125Z,99295.63
2023-05-13T08:57:36.654Z,99284.69
2023-05-13T09:00:05.003Z,99285.28
2023-05-13T09:02:31.551Z,99295.28
2023-05-13T09:05:04.619Z,99286.06
2023-05-13T09:07:31.287Z,99289.19
2023-05-13T09:09:58.048Z,99295.91
2023-05-13T09:12:44.441Z,99298.28
2023-05-13T09:15:12.924Z,99303.28
2023-05-13T09:17:44.156Z,99298.09
2023-05-13T09:20:12.482Z,99291.72
2023-05-13T09:22:54.169Z,99285.72
2023-05-13T09:25:24.410Z,99292.16
2023-05-13T09:27:58.402Z,99291.91
2023-05-13T09:30:28.300Z,99282.66
2023-05-13T09:33:15.027Z,99287.09
2023-05-13T09:35:45.444Z,99281.81
2023-05-13T09:38:17.147Z,99291.97
2023-05-13T09:40:56.915Z,99284.84
2023-05-13T09:43:33.388Z,99285.94
2023-05-13T09:46:08.935Z,99287.69
2023-05-13T09:48:36.520Z,99295.78
2023-05-13T09:51:03.176Z,99279.69
2023-05-13T09:53:31.335Z,99284.03
2023-05-13T09:56:00.048Z,99286.13
2023-05-13T09:58:31.042Z,99295.72
2023-05-13T10:00:58.173Z,99291.59
2023-05-13T10:03:25.159Z,99290.44
2023-05-13T10:05:53.564Z,99287.25
2023-05-13T10:08:20.233Z,99285.56
2023-05-13T10:10:49.566Z,99295.44
2023-05-13T10:13:19.858Z,99285.69
2023-05-13T10:15:51.293Z,99290.81
2023-05-13T10:18:19.040Z,99288.03
2023-05-13T10:20:46.882Z,99288.03
2023-05-13T10:23:13.536Z,99287.06
2023-05-13T10:25:40.995Z,99281.03
2023-05-13T10:28:09.669Z,99278.72
2023-05-13T10:30:36.468Z,99282.06
2023-05-13T10:33:04.170Z,99277.75
2023-05-13T10:35:37.063Z,99280.84
2023-05-13T10:38:09.249Z,99270.72
2023-05-13T10:40:55.566Z,99280.88
2023-05-13T10:43:32.741Z,99276.53
2023-05-13T10:46:05.719Z,99281.84
2023-05-13T10:48:49.794Z,99281.81
2023-05-13T10:51:18.122Z,99279.53
2023-05-13T10:53:48.571Z,99284.50
2023-05-13T10:56:18.594Z,99284.59
2023-05-13T10:59:02.364Z,99275.78
2023-05-13T11:01:30.981Z,99278.59
2023-05-13T11:04:00.459Z,99278.59
2023-05-13T11:06:34.722Z,99289.16
2023-05-13T11:09:01.672Z,99278.59
2023-05-13T11:11:36.621Z,99279.06
2023-05-13T11:14:10.285Z,99286.59
2023-05-13T11:16:37.842Z,99276.94
2023-05-13T11:19:18.180Z,99281.28
2023-05-13T11:21:49.677Z,99282.09
2023-05-13T11:24:18.810Z,99279.94
2023-05-13T11:26:59.309Z,99275.75
2023-05-13T11:29:36.413Z,99271.81
2023-05-13T11:32:05.125Z,99272.63
2023-05-13T11:34:32.900Z,99264.72
2023-05-13T11:37:05.161Z,99279.88
2023-05-13T11:39:32.882Z,99268.56
2023-05-13T11:42:03.972Z,99266.69
2023-05-13T11:44:30.904Z,99265.53
2023-05-13T11:47:08.301Z,99269.94
2023-05-13T11:49:43.092Z,99271.03
2023-05-13T11:52:12.022Z,99274.25
2023-05-13T11:54:43.042Z,99266.97
2023-05-13T11:57:24.296Z,99267.69
2023-05-13T12:00:07.028Z,99260.31
2023-05-13T12:02:39.812Z,99264.31
2023-05-13T12:05:08.902Z,99261.50
2023-05-13T12:07:37.485Z,99261.06
2023-05-13T12:10:05.393Z,99255.47
2023-05-13T12:12:34.716Z,99261.31
2023-05-13T12:15:07.056Z,99256.31
2023-05-13T12:17:34.221Z,99256.06
2023-05-13T12:20:21.293Z,99250.63
2023-05-13T12:22:48.173Z,99256.50
2023-05-13T12:25:46.858Z,99258.97
2023-05-13T12:28:20.134Z,99251.16
2023-05-13T12:30:58.564Z,99257.75
2023-05-13T12:33:30.376Z,99255.75
2023-05-13T12:36:15.604Z,99250.22
2023-05-13T12:39:04.473Z,99251.91
2023-05-13T12:41:32.639Z,99244.94
2023-05-13T12:44:08.242Z,99250.97
2023-05-13T12:46:35.317Z,99248.56
2023-05-13T12:49:04.323Z,99249.97
2023-05-13T12:51:31.139Z,99259.66
2023-05-13T12:54:00.886Z,99251.16
2023-05-13T12:56:27.558Z,99252.69
2023-05-13T12:58:54.431Z,99244.28
2023-05-13T13:01:21.699Z,99236.56
2023-05-13T13:03:48.411Z,99245.91
2023-05-13T13:06:15.585Z,99246.47
2023-05-13T13:08:42.406Z,99249.53
2023-05-13T13:11:09.245Z,99237.00
2023-05-13T13:13:38.769Z,99237.84
2023-05-13T13:16:06.160Z,99234.63
2023-05-13T13:18:32.750Z,99235.81
2023-05-13T13:20:59.210Z,99234.72
2023-05-13T13:23:25.760Z,99233.31
2023-05-13T13:25:52.386Z,99233.31
2023-05-13T13:28:20.089Z,99238.06
2023-05-13T13:30:47.222Z,99239.69
2023-05-13T13:33:17.308Z,99239.25
2023-05-13T13:35:44.891Z,99229.28
2023-05-13T13:38:11.543Z,99227.22
2023-05-13T13:40:38.030Z,99229.75
2023-05-13T13:43:05.782Z,99226.81
2023-05-13T13:45:32.315Z,99223.94
2023-05-13T13:47:59.395Z,99222.06
2023-05-13T13:50:26.468Z,99220.06
2023-05-13T13:52:53.230Z,99216.59
2023-05-13T13:55:21.206Z,99227.25
2023-05-13T13:57:47.903Z,99223.06
2023-05-13T14:00:16.010Z,99221.47
2023-05-13T14:02:45.674Z,99209.78
2023-05-13T14:05:13.502Z,99214.16
2023-05-13T14:07:40.053Z,99215.47
2023-05-13T14:10:07.583Z,99214.13
2023-05-13T14:12:36.268Z,99217.88
2023-05-13T14:15:03.278Z,99215.38
2023-05-13T14:17:29.807Z,99211.19
2023-05-13T14:19:56.370Z,99204.69
2023-05-13T14:22:23.978Z,99206.03
2023-05-13T14:24:53.494Z,99213.09
2023-05-13T14:27:20.826Z,99201.75
2023-05-13T14:29:47.909Z,99206.66
2023-05-13T14:32:14.685Z,99203.84
2023-05-13T14:34:41.270Z,99205.03
2023-05-13T14:37:08.020Z,99202.69
2023-05-13T14:39:34.499Z,99201.13
2023-05-13T14:42:01.424Z,99198.09
2023-05-13T14:44:27.899Z,99193.66
2023-05-13T14:46:54.766Z,99188.13
2023-05-13T14:49:21.292Z,99187.25
2023-05-13T14:51:47.803Z,99198.09
2023-05-13T14:54:14.330Z,99191.00
2023-05-13T14:56:41.495Z,99197.44
2023-05-13T14:59:08.229Z,99190.38
2023-05-13T15:01:34.946Z,99184.06
2023-05-13T15:04:01.690Z,99185.88
2023-05-13T15:06:29.131Z,99192.16
2023-05-13T15:08:56.389Z,99180.66
2023-05-13T15:11:23.251Z,99185.91
2023-05-13T15:13:49.786Z,99184.47
2023-05-13T15:16:16.282Z,99188.59
2023-05-13T15:18:42.976Z,99182.53
2023-05-13T15:21:09.564Z,99189.97
2023-05-13T15:23:36.126Z,99180.28
2023-05-13T15:26:02.654Z,99186.44
2023-05-13T15:28:31.797Z,99179.31
2023-05-13T15:31:01.088Z,99178.69
2023-05-13T15:33:27.672Z,99179.75
2023-05-13T16:47:11.089Z,99152.00
2023-05-13T16:49:37.564Z,99146.69
2023-05-13T16:52:05.085Z,99153.84
2023-05-13T16:54:31.864Z,99154.69
2023-05-13T16:56:58.683Z,99145.00
2023-05-13T16:59:26.801Z,99154.88
2023-05-13T17:01:53.769Z,99154.06
2023-05-13T17:04:21.223Z,99148.66
2023-05-13T17:06:49.294Z,99145.97
2023-05-13T17:09:16.170Z,99146.09
2023-05-13T17:11:42.711Z,99140.88
2023-05-13T17:14:09.189Z,99152.53
2023-05-13T17:16:35.940Z,99140.97
2023-05-13T17:19:03.215Z,99138.38
2023-05-13T17:21:29.896Z,99142.13
2023-05-13T17:23:56.495Z,99143.03
2023-05-13T17:26:23.178Z,99143.09
2023-05-13T17:28:49.805Z,99137.91
2023-05-13T17:31:16.759Z,99140.84
2023-05-13T17:33:46.949Z,99138.41
2023-05-13T17:36:13.601Z,99141.91
2023-05-13T17:38:40.052Z,99139.22
2023-05-13T17:41:06.585Z,99142.97
2023-05-13T17:43:33.099Z,99141.31
2023-05-13T17:46:02.416Z,99135.97
2023-05-13T17:48:29.071Z,99145.03
2023-05-13T17:50:55.858Z,99136.97
2023-05-13T17:53:22.313Z,99134.38
2023-05-13T17:55:49.323Z,99140.94
2023-05-13T17:58:16.478Z,99139.41
2023-05-13T18:00:43.261Z,99138.56
2023-05-13T18:03:09.897Z,99143.34
2023-05-13T18:05:39.835Z,99147.06
2023-05-13T18:08:07.419Z,99146.38
2023-05-13T18:10:33.932Z,99144.72
2023-05-13T18:13:00.398Z,99143.94
2023-05-13T18:15:26.844Z,99149.50
2023-05-13T18:17:53.435Z,99142.44
2023-05-13T18:20:20.194Z,99148.66
2023-05-13T18:22:47.071Z,99146.78
2023-05-13T18:25:13.575Z,99152.16
2023-05-13T18:27:40.057Z,99151.50
2023-05-13T18:30:08.984Z,99157.09
2023-05-13T18:32:35.600Z,99153.69
2023-05-13T18:35:02.116Z,99151.97
2023-05-13T18:37:28.667Z,99152.13
2023-05-13T18:39:57.116Z,99153.31
2023-05-13T18:42:24.229Z,99159.88
2023-05-13T18:44:50.710Z,99156.53
2023-05-13T18:47:17.768Z,99161.16
2023-05-13T18:49:44.284Z,99158.53
2023-05-13T18:52:10.774Z,99171.84
2023-05-13T18:54:37.445Z,99169.94
2023-05-13T18:57:04.182Z,99158.38
2023-05-13T18:59:30.815Z,99168.25
2023-05-13T19:01:58.470Z,99165.59
2023-05-13T19:04:25.391Z,99172.69
2023-05-13T19:06:52.099Z,99179.72
2023-05-13T19:09:18.632Z,99177.25
2023-05-13T19:11:45.116Z,99180.94
2023-05-13T19:14:15.049Z,99180.13
2023-05-13T19:16:41.572Z,99184.50
2023-05-13T19:19:10.936Z,99184.53
2023-05-13T19:21:40.484Z,99182.75
2023-05-13T19:24:07.006Z,99189.03
2023-05-13T19:26:34.683Z,99182.06
2023-05-13T19:29:01.512Z,99185.78
2023-05-13T19:31:28.038Z,99188.69
2023-05-13T19:33:55.027Z,99189.53
2023-05-13T19:36:23.696Z,99188.66
2023-05-13T19:38:50.258Z,99185.06
2023-05-13T19:41:16.716Z,99186.84
2023-05-13T19:43:43.279Z,99185.22
2023-05-13T19:46:09.827Z,99187.09
2023-05-13T19:48:36.350Z,99187.38
2023-05-13T19:51:02.870Z,99194.78
2023-05-13T19:53:29.329Z,99192.31
2023-05-13T19:55:55.960Z,99195.41
2023-05-13T19:58:22.457Z,99198.03
2023-05-13T20:00:49.007Z,99198.09
2023-05-13T20:03:15.777Z,99194.63
2023-05-13T20:05:42.442Z,99192.91
2023-05-13T20:08:09.002Z,99199.94
2023-05-13T20:10:36.660Z,99194.47
2023-05-13T20:13:04.838Z,99192.94
2023-05-13T20:15:32.122Z,99187.94
2023-05-13T20:17:58.757Z,99192.34
2023-05-13T20:20:25.533Z,99196.13
2023-05-13T20:22:52.184Z,99188.16
2023-05-13T20:25:18.736Z,99195.34
2023-05-13T20:27:45.377Z,99199.84
2023-05-13T20:30:12.610Z,99196.47
2023-05-13T20:32:39.182Z,99199.28
2023-05-13T20:35:07.530Z,99199.34
2023-05-13T20:37:34.375Z,99210.13
2023-05-13T20:40:00.998Z,99205.66
2023-05-13T20:42:27.447Z,99209.06
2023-05-13T20:44:56.998Z,99209.00
2023-05-13T20:47:23.495Z,99210.75
2023-05-13T20:49:50.108Z,99203.66
2023-05-13T20:52:16.698Z,99204.63
2023-05-13T20:54:43.276Z,99212.75
2023-05-13T20:57:09.732Z,99205.78
2023-05-13T20:59:36.269Z,99209.50
2023-05-13T21:02:02.876Z,99220.09
2023-05-13T21:04:29.502Z,99214.97
2023-05-13T21:06:59.845Z,99216.63
2023-05-13T21:09:26.297Z,99209.41
2023-05-13T21:11:52.757Z,99214.75
2023-05-13T21:14:19.253Z,99208.56
2023-05-13T21:16:45.714Z,99216.59
2023-05-13T21:19:23.080Z,99218.34
2023-05-13T21:21:49.902Z,99213.03
2023-05-13T21:24:18.262Z,99212.09
2023-05-13T21:26:45.472Z,99207.75
2023-05-13T21:29:12.082Z,99211.50
2023-05-13T21:31:38.619Z,99212.41
2023-05-13T21:34:05.179Z,99209.72
2023-05-13T21:36:33.228Z,99209.06
2023-05-13T21:38:59.688Z,99204.75
2023-05-13T21:41:26.809Z,99209.25
2023-05-13T21:43:53.299Z,99205.72
2023-05-13T21:46:19.760Z,99208.44
2023-05-13T21:48:46.826Z,99210.22
2023-05-13T21:51:13.499Z,99208.44
2023-05-13T21:53:40.014Z,99211.97
2023-05-13T21:56:06.695Z,99220.88
2023-05-13T21:58:33.247Z,99208.44
2023-05-13T22:01:00.276Z,99208.44
2023-05-13T22:03:30.293Z,99213.78
2023-05-13T22:05:57.012Z,99216.47
2023-05-13T22:08:23.601Z,99215.56
2023-05-13T22:10:52.718Z,99215.56
2023-05-13T22:13:21.408Z,99218.22
2023-05-13T22:15:48.857Z,99224.41
2023-05-13T22:18:15.677Z,99220.97
2023-05-13T22:20:42.544Z,99216.53
2023-05-13T22:23:11.572Z,99221.94
2023-05-13T22:25:39.987Z,99219.25
2023-05-13T22:28:09.939Z,99213.97
2023-05-13T22:30:36.427Z,99219.25
2023-05-13T22:33:02.953Z,99210.28
2023-05-13T22:35:29.568Z,99219.16
2023-05-13T22:37:56.014Z,99222.66
2023-05-13T22:40:24.983Z,99211.09
2023-05-13T22:42:51.591Z,99208.56
2023-05-13T22:45:24.869Z,99209.56
2023-05-13T22:47:54.013Z,99203.44
2023-05-13T22:50:20.631Z,99205.22
2023-05-13T22:52:47.279Z,99206.91
2023-05-13T22:55:13.759Z,99201.56
2023-05-13T22:57:40.469Z,99200.75
2023-05-13T23:00:11.606Z,99190.94
2023-05-13T23:02:38.198Z,99198.03
2023-05-13T23:05:05.156Z,99196.25
2023-05-13T23:07:31.619Z,99202.53
2023-05-13T23:10:00.807Z,99192.00
2023-05-13T23:12:33.423Z,99195.56
2023-05-13T23:15:10.368Z,99195.59
2023-05-13T23:17:40.799Z,99201.78
2023-05-13T23:20:07.945Z,99198.25
2023-05-13T23:22:34.455Z,99202.69
2023-05-13T23:25:00.944Z,99205.34
2023-05-13T23:27:27.419Z,99210.63
2023-05-13T23:29:55.542Z,99213.31
2023-05-13T23:32:23.878Z,99207.09
2023-05-13T23:34:53.753Z,99204.44
2023-05-13T23:37:21.849Z,99207.97
2023-05-13T23:39:48.365Z,99208.88
2023-05-13T23:42:16.618Z,99207.09
2023-05-13T23:44:43.091Z,99204.38
2023-05-13T23:47:11.627Z,99203.47
2023-05-13T23:49:38.153Z,99210.56
2023-05-13T23:52:05.082Z,99209.75
2023-05-13T23:54:31.555Z,99209.72
2023-05-13T23:56:58.104Z,99203.56
2023-05-13T23:59:24.530Z,99199.19
